sensor_id;sensor_type;location;lat;lon;timestamp;P1;durP1;ratioP1;P2;durP2;ratioP2
2470;SDS011;1246;53.558;9.940;2022-08-01T00:02:10;16.27;;;14.80;;
2470;SDS011;1246;53.558;9.940;2022-08-01T00:04:35;15.37;;;13.97;;
2470;SDS011;1246;53.558;9.940;2022-08-01T00:07:01;16.70;;;15.00;;
2470;SDS011;1246;53.558;9.940;2022-08-01T00:09:26;14.90;;;13.43;;
2470;SDS011;1246;53.558;9.940;2022-08-01T00:11:52;14.63;;;12.97;;
2470;SDS011;1246;53.558;9.940;2022-08-01T00:14:17;14.57;;;13.17;;
2470;SDS011;1246;53.558;9.940;2022-08-01T00:16:42;15.20;;;13.80;;
2470;SDS011;1246;53.558;9.940;2022-08-01T00:19:08;14.47;;;12.97;;
2470;SDS011;1246;53.558;9.940;2022-08-01T00:21:33;14.00;;;12.77;;
2470;SDS011;1246;53.558;9.940;2022-08-01T00:23:58;14.50;;;13.10;;
2470;SDS011;1246;53.558;9.940;2022-08-01T00:26:24;14.47;;;13.17;;
2470;SDS011;1246;53.558;9.940;2022-08-01T00:28:49;13.90;;;12.50;;
2470;SDS011;1246;53.558;9.940;2022-08-01T00:31:15;15.00;;;13.60;;
2470;SDS011;1246;53.558;9.940;2022-08-01T00:33:40;14.90;;;13.40;;
2470;SDS011;1246;53.558;9.940;2022-08-01T00:36:05;14.40;;;13.10;;
2470;SDS011;1246;53.558;9.940;2022-08-01T00:38:31;15.40;;;13.77;;
2470;SDS011;1246;53.558;9.940;2022-08-01T00:40:56;15.27;;;13.80;;
2470;SDS011;1246;53.558;9.940;2022-08-01T00:43:22;15.57;;;14.07;;
2470;SDS011;1246;53.558;9.940;2022-08-01T00:45:47;14.70;;;13.20;;
2470;SDS011;1246;53.558;9.940;2022-08-01T00:48:13;13.23;;;12.03;;
2470;SDS011;1246;53.558;9.940;2022-08-01T00:50:38;11.30;;;10.20;;
2470;SDS011;1246;53.558;9.940;2022-08-01T00:53:03;11.00;;;9.90;;
2470;SDS011;1246;53.558;9.940;2022-08-01T00:55:29;12.10;;;10.90;;
2470;SDS011;1246;53.558;9.940;2022-08-01T00:57:56;11.70;;;10.60;;
2470;SDS011;1246;53.558;9.940;2022-08-01T01:00:21;12.43;;;11.23;;
2470;SDS011;1246;53.558;9.940;2022-08-01T01:02:47;13.43;;;12.00;;
2470;SDS011;1246;53.558;9.940;2022-08-01T01:05:12;12.40;;;11.20;;
2470;SDS011;1246;53.558;9.940;2022-08-01T01:10:29;12.53;;;11.23;;
2470;SDS011;1246;53.558;9.940;2022-08-01T01:15:49;14.00;;;12.60;;
2470;SDS011;1246;53.558;9.940;2022-08-01T01:18:20;15.07;;;12.57;;
2470;SDS011;1246;53.558;9.940;2022-08-01T01:20:52;14.87;;;12.17;;
2470;SDS011;1246;53.558;9.940;2022-08-01T01:32:05;14.90;;;13.40;;
2470;SDS011;1246;53.558;9.940;2022-08-01T01:34:35;12.83;;;11.53;;
2470;SDS011;1246;53.558;9.940;2022-08-01T01:37:02;13.77;;;12.30;;
2470;SDS011;1246;53.558;9.940;2022-08-01T01:39:30;14.00;;;12.50;;
2470;SDS011;1246;53.558;9.940;2022-08-01T01:41:57;16.00;;;13.30;;
2470;SDS011;1246;53.558;9.940;2022-08-01T01:44:23;13.87;;;12.57;;
2470;SDS011;1246;53.558;9.940;2022-08-01T01:46:50;15.33;;;13.40;;
2470;SDS011;1246;53.558;9.940;2022-08-01T01:49:16;13.83;;;12.00;;
2470;SDS011;1246;53.558;9.940;2022-08-01T01:51:45;14.87;;;13.40;;
2470;SDS011;1246;53.558;9.940;2022-08-01T01:54:11;16.57;;;13.97;;
2470;SDS011;1246;53.558;9.940;2022-08-01T01:56:36;14.77;;;13.30;;
2470;SDS011;1246;53.558;9.940;2022-08-01T01:59:13;15.87;;;13.60;;
2470;SDS011;1246;53.558;9.940;2022-08-01T02:01:40;16.40;;;14.77;;
2470;SDS011;1246;53.558;9.940;2022-08-01T02:04:06;15.67;;;12.13;;
2470;SDS011;1246;53.558;9.940;2022-08-01T02:06:32;14.73;;;13.27;;
2470;SDS011;1246;53.558;9.940;2022-08-01T02:08:58;14.43;;;13.03;;
2470;SDS011;1246;53.558;9.940;2022-08-01T02:11:24;14.77;;;13.33;;
2470;SDS011;1246;53.558;9.940;2022-08-01T02:13:53;14.77;;;13.37;;
2470;SDS011;1246;53.558;9.940;2022-08-01T02:16:24;13.83;;;12.50;;
2470;SDS011;1246;53.558;9.940;2022-08-01T02:18:51;13.40;;;12.10;;
2470;SDS011;1246;53.558;9.940;2022-08-01T02:21:18;12.53;;;11.43;;
2470;SDS011;1246;53.558;9.940;2022-08-01T02:23:47;13.90;;;11.53;;
2470;SDS011;1246;53.558;9.940;2022-08-01T02:26:14;14.63;;;13.13;;
2470;SDS011;1246;53.558;9.940;2022-08-01T02:28:43;14.07;;;11.73;;
2470;SDS011;1246;53.558;9.940;2022-08-01T02:31:12;16.77;;;12.03;;
2470;SDS011;1246;53.558;9.940;2022-08-01T02:33:42;13.67;;;12.30;;
2470;SDS011;1246;53.558;9.940;2022-08-01T02:36:10;13.83;;;12.30;;
2470;SDS011;1246;53.558;9.940;2022-08-01T02:38:37;11.33;;;10.17;;
2470;SDS011;1246;53.558;9.940;2022-08-01T02:41:10;13.13;;;11.80;;
2470;SDS011;1246;53.558;9.940;2022-08-01T02:43:38;13.07;;;11.43;;
2470;SDS011;1246;53.558;9.940;2022-08-01T02:46:06;12.60;;;11.30;;
2470;SDS011;1246;53.558;9.940;2022-08-01T02:48:33;13.60;;;11.77;;
2470;SDS011;1246;53.558;9.940;2022-08-01T02:51:00;14.10;;;12.27;;
2470;SDS011;1246;53.558;9.940;2022-08-01T02:53:26;12.87;;;11.57;;
2470;SDS011;1246;53.558;9.940;2022-08-01T02:55:53;13.57;;;12.27;;
2470;SDS011;1246;53.558;9.940;2022-08-01T02:58:19;15.03;;;13.43;;
2470;SDS011;1246;53.558;9.940;2022-08-01T03:00:46;13.60;;;11.87;;
2470;SDS011;1246;53.558;9.940;2022-08-01T03:03:12;13.33;;;12.00;;
2470;SDS011;1246;53.558;9.940;2022-08-01T03:05:38;12.57;;;11.27;;
2470;SDS011;1246;53.558;9.940;2022-08-01T03:08:05;12.13;;;10.93;;
2470;SDS011;1246;53.558;9.940;2022-08-01T03:10:31;11.93;;;10.50;;
2470;SDS011;1246;53.558;9.940;2022-08-01T03:12:58;10.97;;;9.93;;
2470;SDS011;1246;53.558;9.940;2022-08-01T03:15:25;12.23;;;10.40;;
2470;SDS011;1246;53.558;9.940;2022-08-01T03:17:51;11.83;;;10.73;;
2470;SDS011;1246;53.558;9.940;2022-08-01T03:20:18;12.90;;;11.60;;
2470;SDS011;1246;53.558;9.940;2022-08-01T03:22:45;11.97;;;10.87;;
2470;SDS011;1246;53.558;9.940;2022-08-01T03:25:11;12.23;;;11.13;;
2470;SDS011;1246;53.558;9.940;2022-08-01T03:27:39;12.00;;;10.90;;
2470;SDS011;1246;53.558;9.940;2022-08-01T03:30:05;12.80;;;11.37;;
2470;SDS011;1246;53.558;9.940;2022-08-01T03:32:31;11.80;;;10.60;;
2470;SDS011;1246;53.558;9.940;2022-08-01T03:34:57;12.37;;;11.13;;
2470;SDS011;1246;53.558;9.940;2022-08-01T03:37:24;11.60;;;10.40;;
2470;SDS011;1246;53.558;9.940;2022-08-01T03:39:58;11.20;;;10.20;;
2470;SDS011;1246;53.558;9.940;2022-08-01T03:42:30;12.07;;;10.80;;
2470;SDS011;1246;53.558;9.940;2022-08-01T03:44:58;9.63;;;8.83;;
2470;SDS011;1246;53.558;9.940;2022-08-01T03:47:29;11.80;;;10.60;;
2470;SDS011;1246;53.558;9.940;2022-08-01T03:49:57;10.30;;;9.23;;
2470;SDS011;1246;53.558;9.940;2022-08-01T03:52:23;10.57;;;9.60;;
2470;SDS011;1246;53.558;9.940;2022-08-01T03:54:49;10.53;;;9.43;;
2470;SDS011;1246;53.558;9.940;2022-08-01T03:57:16;10.43;;;9.37;;
2470;SDS011;1246;53.558;9.940;2022-08-01T03:59:42;10.17;;;9.10;;
2470;SDS011;1246;53.558;9.940;2022-08-01T04:02:08;9.67;;;8.67;;
2470;SDS011;1246;53.558;9.940;2022-08-01T04:04:34;10.90;;;9.90;;
2470;SDS011;1246;53.558;9.940;2022-08-01T04:06:59;10.83;;;9.23;;
2470;SDS011;1246;53.558;9.940;2022-08-01T04:09:29;9.60;;;8.67;;
2470;SDS011;1246;53.558;9.940;2022-08-01T04:12:00;11.40;;;7.90;;
2470;SDS011;1246;53.558;9.940;2022-08-01T04:14:26;8.40;;;7.60;;
2470;SDS011;1246;53.558;9.940;2022-08-01T04:16:53;13.47;;;7.43;;
2470;SDS011;1246;53.558;9.940;2022-08-01T04:19:18;7.73;;;6.70;;
2470;SDS011;1246;53.558;9.940;2022-08-01T04:21:43;9.60;;;6.73;;
2470;SDS011;1246;53.558;9.940;2022-08-01T04:24:11;6.80;;;6.10;;
2470;SDS011;1246;53.558;9.940;2022-08-01T04:26:39;6.90;;;6.20;;
2470;SDS011;1246;53.558;9.940;2022-08-01T04:29:06;8.57;;;6.03;;
2470;SDS011;1246;53.558;9.940;2022-08-01T04:31:33;7.73;;;5.97;;
2470;SDS011;1246;53.558;9.940;2022-08-01T04:34:00;7.43;;;5.90;;
2470;SDS011;1246;53.558;9.940;2022-08-01T04:36:27;6.73;;;6.13;;
2470;SDS011;1246;53.558;9.940;2022-08-01T04:38:54;6.80;;;6.17;;
2470;SDS011;1246;53.558;9.940;2022-08-01T04:41:21;6.87;;;5.70;;
2470;SDS011;1246;53.558;9.940;2022-08-01T04:43:47;6.10;;;5.50;;
2470;SDS011;1246;53.558;9.940;2022-08-01T04:46:13;7.10;;;5.20;;
2470;SDS011;1246;53.558;9.940;2022-08-01T04:48:39;6.00;;;5.00;;
2470;SDS011;1246;53.558;9.940;2022-08-01T04:51:10;5.00;;;4.50;;
2470;SDS011;1246;53.558;9.940;2022-08-01T04:53:38;5.13;;;4.63;;
2470;SDS011;1246;53.558;9.940;2022-08-01T04:56:03;5.47;;;4.80;;
2470;SDS011;1246;53.558;9.940;2022-08-01T04:58:28;5.40;;;4.90;;
2470;SDS011;1246;53.558;9.940;2022-08-01T05:00:54;6.07;;;5.07;;
2470;SDS011;1246;53.558;9.940;2022-08-01T05:03:19;5.23;;;4.80;;
2470;SDS011;1246;53.558;9.940;2022-08-01T05:05:44;5.60;;;4.60;;
2470;SDS011;1246;53.558;9.940;2022-08-01T05:08:10;6.27;;;5.23;;
2470;SDS011;1246;53.558;9.940;2022-08-01T05:10:35;5.33;;;4.83;;
2470;SDS011;1246;53.558;9.940;2022-08-01T05:13:00;5.73;;;5.13;;
2470;SDS011;1246;53.558;9.940;2022-08-01T05:15:26;5.23;;;4.73;;
2470;SDS011;1246;53.558;9.940;2022-08-01T05:17:52;5.60;;;5.03;;
2470;SDS011;1246;53.558;9.940;2022-08-01T05:20:17;5.70;;;5.20;;
2470;SDS011;1246;53.558;9.940;2022-08-01T05:22:43;6.47;;;5.53;;
2470;SDS011;1246;53.558;9.940;2022-08-01T05:25:08;7.00;;;6.30;;
2470;SDS011;1246;53.558;9.940;2022-08-01T05:27:33;6.80;;;6.23;;
2470;SDS011;1246;53.558;9.940;2022-08-01T05:30:04;7.00;;;6.30;;
2470;SDS011;1246;53.558;9.940;2022-08-01T05:32:31;7.50;;;6.90;;
2470;SDS011;1246;53.558;9.940;2022-08-01T05:34:56;7.90;;;7.27;;
2470;SDS011;1246;53.558;9.940;2022-08-01T05:37:22;8.80;;;8.00;;
2470;SDS011;1246;53.558;9.940;2022-08-01T05:39:47;9.40;;;8.50;;
2470;SDS011;1246;53.558;9.940;2022-08-01T05:42:12;10.77;;;9.87;;
2470;SDS011;1246;53.558;9.940;2022-08-01T05:44:38;10.30;;;9.50;;
2470;SDS011;1246;53.558;9.940;2022-08-01T05:47:03;10.77;;;9.77;;
2470;SDS011;1246;53.558;9.940;2022-08-01T05:49:28;13.60;;;10.57;;
2470;SDS011;1246;53.558;9.940;2022-08-01T05:51:54;11.37;;;10.37;;
2470;SDS011;1246;53.558;9.940;2022-08-01T05:54:20;11.00;;;10.10;;
2470;SDS011;1246;53.558;9.940;2022-08-01T05:56:45;13.17;;;11.43;;
2470;SDS011;1246;53.558;9.940;2022-08-01T05:59:10;12.47;;;11.37;;
2470;SDS011;1246;53.558;9.940;2022-08-01T06:01:35;12.57;;;11.17;;
2470;SDS011;1246;53.558;9.940;2022-08-01T06:04:01;12.80;;;11.53;;
2470;SDS011;1246;53.558;9.940;2022-08-01T06:06:26;11.50;;;10.40;;
2470;SDS011;1246;53.558;9.940;2022-08-01T06:08:52;12.70;;;11.50;;
2470;SDS011;1246;53.558;9.940;2022-08-01T06:11:17;12.00;;;11.00;;
2470;SDS011;1246;53.558;9.940;2022-08-01T06:13:42;12.40;;;11.20;;
2470;SDS011;1246;53.558;9.940;2022-08-01T06:16:08;11.40;;;10.30;;
2470;SDS011;1246;53.558;9.940;2022-08-01T06:18:33;11.73;;;10.63;;
2470;SDS011;1246;53.558;9.940;2022-08-01T06:20:58;11.90;;;10.90;;
2470;SDS011;1246;53.558;9.940;2022-08-01T06:23:24;12.50;;;11.40;;
2470;SDS011;1246;53.558;9.940;2022-08-01T06:25:52;10.23;;;8.20;;
2470;SDS011;1246;53.558;9.940;2022-08-01T06:28:19;14.53;;;9.10;;
2470;SDS011;1246;53.558;9.940;2022-08-01T06:30:45;9.37;;;8.23;;
2470;SDS011;1246;53.558;9.940;2022-08-01T06:33:10;9.07;;;8.07;;
2470;SDS011;1246;53.558;9.940;2022-08-01T06:35:35;10.30;;;8.13;;
2470;SDS011;1246;53.558;9.940;2022-08-01T06:38:01;9.83;;;7.80;;
2470;SDS011;1246;53.558;9.940;2022-08-01T06:40:27;8.30;;;7.50;;
2470;SDS011;1246;53.558;9.940;2022-08-01T06:42:53;8.37;;;7.27;;
2470;SDS011;1246;53.558;9.940;2022-08-01T06:45:18;11.40;;;7.80;;
2470;SDS011;1246;53.558;9.940;2022-08-01T06:47:47;10.63;;;7.50;;
2470;SDS011;1246;53.558;9.940;2022-08-01T06:50:12;8.93;;;7.47;;
2470;SDS011;1246;53.558;9.940;2022-08-01T06:52:39;9.93;;;8.60;;
2470;SDS011;1246;53.558;9.940;2022-08-01T06:55:05;8.80;;;7.13;;
2470;SDS011;1246;53.558;9.940;2022-08-01T06:57:31;9.03;;;7.50;;
2470;SDS011;1246;53.558;9.940;2022-08-01T06:59:57;7.73;;;6.60;;
2470;SDS011;1246;53.558;9.940;2022-08-01T07:02:23;10.13;;;9.13;;
2470;SDS011;1246;53.558;9.940;2022-08-01T07:04:48;7.37;;;6.77;;
2470;SDS011;1246;53.558;9.940;2022-08-01T07:07:13;10.13;;;6.13;;
2470;SDS011;1246;53.558;9.940;2022-08-01T07:09:39;8.30;;;5.10;;
2470;SDS011;1246;53.558;9.940;2022-08-01T07:12:07;10.13;;;6.27;;
2470;SDS011;1246;53.558;9.940;2022-08-01T07:14:33;8.30;;;6.10;;
2470;SDS011;1246;53.558;9.940;2022-08-01T07:16:59;7.87;;;5.90;;
2470;SDS011;1246;53.558;9.940;2022-08-01T07:19:24;9.97;;;6.57;;
2470;SDS011;1246;53.558;9.940;2022-08-01T07:21:50;14.93;;;8.00;;
2470;SDS011;1246;53.558;9.940;2022-08-01T07:24:15;13.13;;;8.70;;
2470;SDS011;1246;53.558;9.940;2022-08-01T07:26:41;13.13;;;10.80;;
2470;SDS011;1246;53.558;9.940;2022-08-01T07:29:07;14.83;;;8.80;;
2470;SDS011;1246;53.558;9.940;2022-08-01T07:31:33;14.03;;;9.20;;
2470;SDS011;1246;53.558;9.940;2022-08-01T07:33:58;9.27;;;8.27;;
2470;SDS011;1246;53.558;9.940;2022-08-01T07:36:23;13.87;;;8.57;;
2470;SDS011;1246;53.558;9.940;2022-08-01T07:38:49;9.70;;;7.67;;
2470;SDS011;1246;53.558;9.940;2022-08-01T07:41:14;10.33;;;7.43;;
2470;SDS011;1246;53.558;9.940;2022-08-01T07:43:40;12.57;;;6.93;;
2470;SDS011;1246;53.558;9.940;2022-08-01T07:46:06;9.47;;;6.97;;
2470;SDS011;1246;53.558;9.940;2022-08-01T07:48:32;10.97;;;6.83;;
2470;SDS011;1246;53.558;9.940;2022-08-01T07:50:58;15.40;;;6.57;;
2470;SDS011;1246;53.558;9.940;2022-08-01T07:53:23;13.33;;;7.77;;
2470;SDS011;1246;53.558;9.940;2022-08-01T07:55:48;13.23;;;7.80;;
2470;SDS011;1246;53.558;9.940;2022-08-01T07:58:15;9.33;;;6.33;;
2470;SDS011;1246;53.558;9.940;2022-08-01T08:00:40;9.10;;;6.20;;
2470;SDS011;1246;53.558;9.940;2022-08-01T08:03:06;9.60;;;5.50;;
2470;SDS011;1246;53.558;9.940;2022-08-01T08:05:31;8.80;;;4.90;;
2470;SDS011;1246;53.558;9.940;2022-08-01T08:08:00;7.83;;;5.10;;
2470;SDS011;1246;53.558;9.940;2022-08-01T08:10:35;9.97;;;5.00;;
2470;SDS011;1246;53.558;9.940;2022-08-01T08:13:00;11.80;;;4.33;;
2470;SDS011;1246;53.558;9.940;2022-08-01T08:15:29;5.23;;;3.70;;
2470;SDS011;1246;53.558;9.940;2022-08-01T08:17:54;12.03;;;3.80;;
2470;SDS011;1246;53.558;9.940;2022-08-01T08:20:20;6.87;;;3.50;;
2470;SDS011;1246;53.558;9.940;2022-08-01T08:22:50;6.97;;;3.30;;
2470;SDS011;1246;53.558;9.940;2022-08-01T08:25:15;8.63;;;3.77;;
2470;SDS011;1246;53.558;9.940;2022-08-01T08:27:41;7.83;;;3.80;;
2470;SDS011;1246;53.558;9.940;2022-08-01T08:30:06;5.67;;;3.43;;
2470;SDS011;1246;53.558;9.940;2022-08-01T08:32:32;6.83;;;3.57;;
2470;SDS011;1246;53.558;9.940;2022-08-01T08:34:58;8.60;;;3.60;;
2470;SDS011;1246;53.558;9.940;2022-08-01T08:37:23;11.87;;;3.80;;
2470;SDS011;1246;53.558;9.940;2022-08-01T08:39:49;6.63;;;3.73;;
2470;SDS011;1246;53.558;9.940;2022-08-01T08:42:14;6.30;;;3.57;;
2470;SDS011;1246;53.558;9.940;2022-08-01T08:44:40;6.93;;;3.77;;
2470;SDS011;1246;53.558;9.940;2022-08-01T08:47:06;4.90;;;3.40;;
2470;SDS011;1246;53.558;9.940;2022-08-01T08:49:32;6.00;;;3.37;;
2470;SDS011;1246;53.558;9.940;2022-08-01T08:51:59;5.17;;;3.67;;
2470;SDS011;1246;53.558;9.940;2022-08-01T08:54:25;9.63;;;4.17;;
2470;SDS011;1246;53.558;9.940;2022-08-01T08:56:52;7.80;;;3.53;;
2470;SDS011;1246;53.558;9.940;2022-08-01T08:59:18;8.50;;;3.57;;
2470;SDS011;1246;53.558;9.940;2022-08-01T09:01:43;6.27;;;3.40;;
2470;SDS011;1246;53.558;9.940;2022-08-01T09:04:09;4.87;;;3.17;;
2470;SDS011;1246;53.558;9.940;2022-08-01T09:06:35;6.00;;;3.37;;
2470;SDS011;1246;53.558;9.940;2022-08-01T09:09:01;5.30;;;3.20;;
2470;SDS011;1246;53.558;9.940;2022-08-01T09:11:27;4.40;;;2.90;;
2470;SDS011;1246;53.558;9.940;2022-08-01T09:16:26;5.87;;;3.77;;
2470;SDS011;1246;53.558;9.940;2022-08-01T09:18:52;5.80;;;4.27;;
2470;SDS011;1246;53.558;9.940;2022-08-01T09:21:18;24.63;;;5.60;;
2470;SDS011;1246;53.558;9.940;2022-08-01T09:23:47;9.73;;;3.37;;
2470;SDS011;1246;53.558;9.940;2022-08-01T09:26:15;7.27;;;3.80;;
2470;SDS011;1246;53.558;9.940;2022-08-01T09:28:42;11.03;;;3.73;;
2470;SDS011;1246;53.558;9.940;2022-08-01T09:31:09;7.53;;;3.77;;
2470;SDS011;1246;53.558;9.940;2022-08-01T09:36:17;7.80;;;4.20;;
2470;SDS011;1246;53.558;9.940;2022-08-01T09:38:43;6.30;;;3.50;;
2470;SDS011;1246;53.558;9.940;2022-08-01T09:41:09;5.77;;;3.87;;
2470;SDS011;1246;53.558;9.940;2022-08-01T09:43:36;5.27;;;3.87;;
2470;SDS011;1246;53.558;9.940;2022-08-01T09:46:06;6.13;;;3.70;;
2470;SDS011;1246;53.558;9.940;2022-08-01T09:48:37;5.93;;;3.87;;
2470;SDS011;1246;53.558;9.940;2022-08-01T09:51:06;9.47;;;3.80;;
2470;SDS011;1246;53.558;9.940;2022-08-01T09:53:48;8.30;;;4.13;;
2470;SDS011;1246;53.558;9.940;2022-08-01T09:56:14;7.00;;;4.13;;
2470;SDS011;1246;53.558;9.940;2022-08-01T10:01:22;8.77;;;3.57;;
2470;SDS011;1246;53.558;9.940;2022-08-01T10:04:03;7.00;;;3.90;;
2470;SDS011;1246;53.558;9.940;2022-08-01T10:06:30;9.73;;;4.50;;
2470;SDS011;1246;53.558;9.940;2022-08-01T10:08:55;5.30;;;3.77;;
2470;SDS011;1246;53.558;9.940;2022-08-01T10:11:21;7.80;;;4.50;;
2470;SDS011;1246;53.558;9.940;2022-08-01T10:13:47;7.20;;;3.70;;
2470;SDS011;1246;53.558;9.940;2022-08-01T10:16:13;7.57;;;3.80;;
2470;SDS011;1246;53.558;9.940;2022-08-01T10:18:39;7.83;;;4.13;;
2470;SDS011;1246;53.558;9.940;2022-08-01T10:21:05;5.13;;;3.50;;
2470;SDS011;1246;53.558;9.940;2022-08-01T10:23:33;8.80;;;4.40;;
2470;SDS011;1246;53.558;9.940;2022-08-01T10:26:00;8.10;;;4.17;;
2470;SDS011;1246;53.558;9.940;2022-08-01T10:28:25;8.37;;;3.83;;
2470;SDS011;1246;53.558;9.940;2022-08-01T10:30:51;4.17;;;3.57;;
2470;SDS011;1246;53.558;9.940;2022-08-01T10:33:17;5.77;;;3.77;;
2470;SDS011;1246;53.558;9.940;2022-08-01T10:35:45;4.20;;;3.30;;
2470;SDS011;1246;53.558;9.940;2022-08-01T10:38:10;6.30;;;3.70;;
2470;SDS011;1246;53.558;9.940;2022-08-01T10:40:36;8.50;;;3.20;;
2470;SDS011;1246;53.558;9.940;2022-08-01T10:43:02;5.73;;;3.30;;
2470;SDS011;1246;53.558;9.940;2022-08-01T10:45:28;5.53;;;3.27;;
2470;SDS011;1246;53.558;9.940;2022-08-01T10:48:04;5.90;;;3.43;;
2470;SDS011;1246;53.558;9.940;2022-08-01T10:50:42;7.10;;;3.47;;
2470;SDS011;1246;53.558;9.940;2022-08-01T10:53:16;9.73;;;3.20;;
2470;SDS011;1246;53.558;9.940;2022-08-01T10:55:57;4.50;;;3.53;;
2470;SDS011;1246;53.558;9.940;2022-08-01T10:58:26;8.23;;;3.53;;
2470;SDS011;1246;53.558;9.940;2022-08-01T11:11:56;4.60;;;3.27;;
2470;SDS011;1246;53.558;9.940;2022-08-01T11:14:22;5.63;;;3.57;;
2470;SDS011;1246;53.558;9.940;2022-08-01T11:16:47;7.73;;;3.50;;
2470;SDS011;1246;53.558;9.940;2022-08-01T11:19:13;4.03;;;2.93;;
2470;SDS011;1246;53.558;9.940;2022-08-01T11:27:20;5.93;;;3.50;;
2470;SDS011;1246;53.558;9.940;2022-08-01T11:32:45;8.70;;;3.40;;
2470;SDS011;1246;53.558;9.940;2022-08-01T11:35:11;7.30;;;3.63;;
2470;SDS011;1246;53.558;9.940;2022-08-01T11:37:37;8.63;;;3.93;;
2470;SDS011;1246;53.558;9.940;2022-08-01T11:40:15;9.73;;;3.90;;
2470;SDS011;1246;53.558;9.940;2022-08-01T11:42:42;6.60;;;3.17;;
2470;SDS011;1246;53.558;9.940;2022-08-01T11:45:07;6.67;;;3.20;;
2470;SDS011;1246;53.558;9.940;2022-08-01T11:47:46;5.13;;;3.00;;
2470;SDS011;1246;53.558;9.940;2022-08-01T11:52:59;7.60;;;3.03;;
2470;SDS011;1246;53.558;9.940;2022-08-01T11:55:26;6.00;;;3.40;;
2470;SDS011;1246;53.558;9.940;2022-08-01T11:58:26;11.13;;;3.43;;
2470;SDS011;1246;53.558;9.940;2022-08-01T12:00:55;6.33;;;3.40;;
2470;SDS011;1246;53.558;9.940;2022-08-01T12:03:23;8.63;;;3.63;;
2470;SDS011;1246;53.558;9.940;2022-08-01T12:05:50;5.80;;;3.43;;
2470;SDS011;1246;53.558;9.940;2022-08-01T12:08:24;5.27;;;3.23;;
2470;SDS011;1246;53.558;9.940;2022-08-01T12:10:53;4.87;;;3.43;;
2470;SDS011;1246;53.558;9.940;2022-08-01T12:13:18;10.40;;;3.37;;
2470;SDS011;1246;53.558;9.940;2022-08-01T12:15:45;5.80;;;3.77;;
2470;SDS011;1246;53.558;9.940;2022-08-01T12:18:10;4.70;;;3.07;;
2470;SDS011;1246;53.558;9.940;2022-08-01T12:20:37;7.80;;;3.30;;
2470;SDS011;1246;53.558;9.940;2022-08-01T12:23:05;6.60;;;3.30;;
2470;SDS011;1246;53.558;9.940;2022-08-01T12:25:32;7.70;;;3.50;;
2470;SDS011;1246;53.558;9.940;2022-08-01T12:28:02;6.17;;;3.40;;
2470;SDS011;1246;53.558;9.940;2022-08-01T12:30:29;6.20;;;3.40;;
2470;SDS011;1246;53.558;9.940;2022-08-01T12:32:56;7.23;;;3.70;;
2470;SDS011;1246;53.558;9.940;2022-08-01T12:35:23;5.50;;;3.10;;
2470;SDS011;1246;53.558;9.940;2022-08-01T12:37:53;5.20;;;3.47;;
2470;SDS011;1246;53.558;9.940;2022-08-01T12:40:24;5.07;;;3.20;;
2470;SDS011;1246;53.558;9.940;2022-08-01T12:42:52;7.77;;;3.50;;
2470;SDS011;1246;53.558;9.940;2022-08-01T12:45:19;7.37;;;3.83;;
2470;SDS011;1246;53.558;9.940;2022-08-01T12:47:50;8.80;;;3.53;;
2470;SDS011;1246;53.558;9.940;2022-08-01T12:50:20;6.40;;;3.10;;
2470;SDS011;1246;53.558;9.940;2022-08-01T12:52:47;6.60;;;3.23;;
2470;SDS011;1246;53.558;9.940;2022-08-01T12:55:20;5.07;;;3.20;;
2470;SDS011;1246;53.558;9.940;2022-08-01T12:57:47;5.53;;;3.40;;
2470;SDS011;1246;53.558;9.940;2022-08-01T13:00:24;5.57;;;3.87;;
2470;SDS011;1246;53.558;9.940;2022-08-01T13:03:12;5.70;;;3.13;;
2470;SDS011;1246;53.558;9.940;2022-08-01T13:08:17;5.30;;;2.80;;
2470;SDS011;1246;53.558;9.940;2022-08-01T13:10:44;6.47;;;3.17;;
2470;SDS011;1246;53.558;9.940;2022-08-01T13:13:09;6.80;;;3.00;;
2470;SDS011;1246;53.558;9.940;2022-08-01T13:15:37;7.00;;;3.17;;
2470;SDS011;1246;53.558;9.940;2022-08-01T13:23:41;6.90;;;3.10;;
2470;SDS011;1246;53.558;9.940;2022-08-01T13:26:08;6.63;;;2.90;;
2470;SDS011;1246;53.558;9.940;2022-08-01T13:28:33;6.57;;;3.10;;
2470;SDS011;1246;53.558;9.940;2022-08-01T13:33:27;7.57;;;3.43;;
2470;SDS011;1246;53.558;9.940;2022-08-01T13:36:04;6.60;;;2.83;;
2470;SDS011;1246;53.558;9.940;2022-08-01T13:38:29;4.90;;;2.93;;
2470;SDS011;1246;53.558;9.940;2022-08-01T13:41:13;8.23;;;3.20;;
2470;SDS011;1246;53.558;9.940;2022-08-01T13:43:38;7.80;;;3.63;;
2470;SDS011;1246;53.558;9.940;2022-08-01T13:46:05;6.27;;;3.37;;
2470;SDS011;1246;53.558;9.940;2022-08-01T13:48:31;6.23;;;3.47;;
2470;SDS011;1246;53.558;9.940;2022-08-01T13:50:56;5.37;;;2.70;;
2470;SDS011;1246;53.558;9.940;2022-08-01T13:53:22;7.10;;;3.53;;
2470;SDS011;1246;53.558;9.940;2022-08-01T13:55:47;3.80;;;3.20;;
2470;SDS011;1246;53.558;9.940;2022-08-01T13:58:13;7.50;;;3.07;;
2470;SDS011;1246;53.558;9.940;2022-08-01T14:00:38;7.60;;;3.43;;
2470;SDS011;1246;53.558;9.940;2022-08-01T14:03:03;5.37;;;3.30;;
2470;SDS011;1246;53.558;9.940;2022-08-01T14:05:29;6.80;;;3.23;;
2470;SDS011;1246;53.558;9.940;2022-08-01T14:07:55;5.80;;;3.80;;
2470;SDS011;1246;53.558;9.940;2022-08-01T14:10:20;8.00;;;3.30;;
2470;SDS011;1246;53.558;9.940;2022-08-01T14:12:48;3.80;;;3.20;;
2470;SDS011;1246;53.558;9.940;2022-08-01T14:15:14;6.70;;;3.50;;
2470;SDS011;1246;53.558;9.940;2022-08-01T14:17:41;6.93;;;3.20;;
2470;SDS011;1246;53.558;9.940;2022-08-01T14:20:06;4.67;;;2.97;;
2470;SDS011;1246;53.558;9.940;2022-08-01T14:22:32;7.17;;;3.33;;
2470;SDS011;1246;53.558;9.940;2022-08-01T14:24:57;5.50;;;3.30;;
2470;SDS011;1246;53.558;9.940;2022-08-01T14:27:24;6.33;;;2.63;;
2470;SDS011;1246;53.558;9.940;2022-08-01T14:29:50;5.70;;;3.20;;
2470;SDS011;1246;53.558;9.940;2022-08-01T14:32:15;4.70;;;3.10;;
2470;SDS011;1246;53.558;9.940;2022-08-01T14:34:41;6.37;;;3.30;;
2470;SDS011;1246;53.558;9.940;2022-08-01T14:37:06;4.70;;;3.00;;
2470;SDS011;1246;53.558;9.940;2022-08-01T14:39:32;9.60;;;4.10;;
2470;SDS011;1246;53.558;9.940;2022-08-01T14:41:57;4.67;;;2.83;;
2470;SDS011;1246;53.558;9.940;2022-08-01T14:44:25;6.83;;;3.00;;
2470;SDS011;1246;53.558;9.940;2022-08-01T14:46:51;7.10;;;3.80;;
2470;SDS011;1246;53.558;9.940;2022-08-01T14:49:16;8.63;;;3.83;;
2470;SDS011;1246;53.558;9.940;2022-08-01T14:51:41;7.60;;;5.53;;
2470;SDS011;1246;53.558;9.940;2022-08-01T14:54:07;6.23;;;3.60;;
2470;SDS011;1246;53.558;9.940;2022-08-01T14:56:32;5.87;;;3.00;;
2470;SDS011;1246;53.558;9.940;2022-08-01T14:58:58;9.43;;;3.30;;
2470;SDS011;1246;53.558;9.940;2022-08-01T15:01:23;5.57;;;3.67;;
2470;SDS011;1246;53.558;9.940;2022-08-01T15:03:49;9.17;;;3.30;;
2470;SDS011;1246;53.558;9.940;2022-08-01T15:06:15;6.83;;;2.83;;
2470;SDS011;1246;53.558;9.940;2022-08-01T15:08:41;6.00;;;3.07;;
2470;SDS011;1246;53.558;9.940;2022-08-01T15:11:07;4.97;;;3.50;;
2470;SDS011;1246;53.558;9.940;2022-08-01T15:13:33;4.83;;;3.10;;
2470;SDS011;1246;53.558;9.940;2022-08-01T15:15:59;5.90;;;3.37;;
2470;SDS011;1246;53.558;9.940;2022-08-01T15:18:24;5.80;;;3.23;;
2470;SDS011;1246;53.558;9.940;2022-08-01T15:20:50;6.97;;;3.70;;
2470;SDS011;1246;53.558;9.940;2022-08-01T15:23:15;4.67;;;3.70;;
2470;SDS011;1246;53.558;9.940;2022-08-01T15:25:40;6.77;;;3.40;;
2470;SDS011;1246;53.558;9.940;2022-08-01T15:28:06;5.60;;;3.60;;
2470;SDS011;1246;53.558;9.940;2022-08-01T15:30:31;5.00;;;3.50;;
2470;SDS011;1246;53.558;9.940;2022-08-01T15:32:58;7.63;;;3.73;;
2470;SDS011;1246;53.558;9.940;2022-08-01T15:35:23;4.10;;;3.20;;
2470;SDS011;1246;53.558;9.940;2022-08-01T15:37:48;4.20;;;3.00;;
2470;SDS011;1246;53.558;9.940;2022-08-01T15:40:14;7.30;;;4.20;;
2470;SDS011;1246;53.558;9.940;2022-08-01T15:42:39;6.13;;;3.70;;
2470;SDS011;1246;53.558;9.940;2022-08-01T15:45:05;5.10;;;3.47;;
2470;SDS011;1246;53.558;9.940;2022-08-01T15:47:31;7.03;;;4.00;;
2470;SDS011;1246;53.558;9.940;2022-08-01T15:49:57;6.10;;;3.90;;
2470;SDS011;1246;53.558;9.940;2022-08-01T15:52:26;5.70;;;3.73;;
2470;SDS011;1246;53.558;9.940;2022-08-01T15:54:51;6.10;;;3.43;;
2470;SDS011;1246;53.558;9.940;2022-08-01T15:57:17;5.90;;;4.33;;
2470;SDS011;1246;53.558;9.940;2022-08-01T15:59:42;6.10;;;3.80;;